createdAt,value
2023-01-07T00:25:52.645Z,978.8
2023-01-07T00:55:54.625Z,978.6
2023-01-07T01:25:58.603Z,978.4
2023-01-07T01:55:59.642Z,978.2
2023-01-07T02:26:02.644Z,978.1
2023-01-07T02:56:09.507Z,977.7
2023-01-07T03:26:12.586Z,977.3
2023-01-07T03:56:22.535Z,977
2023-01-07T04:26:26.762Z,976.7
2023-01-07T04:56:37.558Z,976.4
2023-01-07T05:26:46.518Z,976.2
2023-01-07T05:56:47.916Z,975.8
2023-01-07T06:26:51.744Z,975.8
2023-01-07T06:56:53.705Z,975.5
2023-01-07T07:26:55.898Z,975.5
2023-01-07T07:56:57.744Z,975.2
2023-01-07T08:27:01.785Z,975.1
2023-01-07T08:57:03.744Z,975
2023-01-07T09:27:10.729Z,974.7
2023-01-07T09:57:11.704Z,974.7
2023-01-07T10:27:13.000Z,974.3
2023-01-07T10:57:16.660Z,974.1
2023-01-07T11:27:19.857Z,973.4
2023-01-07T11:57:25.776Z,972.9
2023-01-07T12:27:29.683Z,972.1
2023-01-07T12:57:32.625Z,971.6
2023-01-07T13:27:34.607Z,971.3
2023-01-07T13:57:45.000Z,971.1
2023-01-07T14:27:51.601Z,971
2023-01-07T14:57:53.000Z,971.1
2023-01-07T15:27:54.603Z,971
2023-01-07T15:57:56.774Z,971
2023-01-07T16:27:59.515Z,971
2023-01-07T16:58:00.476Z,971
2023-01-07T17:28:07.398Z,970.9
2023-01-07T17:58:15.939Z,970.8
2023-01-07T18:28:17.880Z,970.6
2023-01-07T18:58:22.889Z,970.8
2023-01-07T19:28:27.898Z,970.6
2023-01-07T19:58:33.818Z,970.6
2023-01-07T20:28:35.823Z,970.2
2023-01-07T20:58:37.000Z,970.1
2023-01-07T21:28:41.714Z,970.2
2023-01-07T21:58:43.673Z,970
2023-01-07T22:28:49.000Z,969.8
2023-01-07T22:58:52.000Z,969.8
2023-01-07T23:28:57.620Z,969.4
2023-01-07T23:58:58.555Z,969.1
